Time;durP1;ratioP1;P1;durP2;ratioP2;P2;SDS_P1;SDS_P2;PMS_P1;PMS_P2;Temp;Humidity;BMP_temperature;BMP_pressure;BME280_temperature;BME280_humidity;BME280_pressure;Samples;Min_cycle;Max_cycle;Signal;HPM_P1;HPM_P2
2022/05/12 00:00:54;;;;;;;2.33;2.20;;;17.50;99.90;;;;;;5065589;28;20278;-52
2022/05/12 00:03:20;;;;;;;3.97;2.27;;;17.40;99.90;;;;;;5066147;28;20256;-57
2022/05/12 00:05:46;;;;;;;2.40;2.20;;;17.30;99.90;;;;;;5065908;28;20220;-52
2022/05/12 00:08:13;;;;;;;4.07;2.37;;;17.30;99.90;;;;;;5064948;28;20290;-53
2022/05/12 00:10:40;;;;;;;2.30;2.20;;;17.30;99.90;;;;;;5066459;28;20193;-51
2022/05/12 00:13:06;;;;;;;3.20;2.30;;;17.30;99.90;;;;;;5082893;28;20570;-51
2022/05/12 00:15:34;;;;;;;4.13;2.80;;;17.20;99.90;;;;;;5066399;28;20200;-51
2022/05/12 00:18:02;;;;;;;2.73;2.50;;;17.30;99.90;;;;;;5065828;28;20203;-54
2022/05/12 00:20:28;;;;;;;2.30;2.13;;;17.20;99.90;;;;;;5065151;28;20235;-55
2022/05/12 00:23:22;;;;;;;2.47;2.27;;;17.20;99.90;;;;;;5065516;28;20183;-50
2022/05/12 00:25:49;;;;;;;2.27;2.07;;;17.10;99.90;;;;;;5062413;28;21031;-54
2022/05/12 00:28:17;;;;;;;2.33;2.13;;;17.10;99.90;;;;;;5067035;28;20187;-51
2022/05/12 00:30:44;;;;;;;3.20;2.30;;;17.00;99.90;;;;;;5065300;28;20191;-55
2022/05/12 00:33:11;;;;;;;4.37;2.37;;;17.00;99.90;;;;;;5065556;28;20204;-49
2022/05/12 00:35:37;;;;;;;3.70;2.40;;;17.00;99.90;;;;;;5065089;28;20196;-52
2022/05/12 00:38:03;;;;;;;2.60;2.40;;;16.90;99.90;;;;;;5065948;28;20208;-52
2022/05/12 00:40:29;;;;;;;3.80;2.63;;;16.90;99.90;;;;;;5065385;28;20216;-55
2022/05/12 00:43:01;;;;;;;2.87;2.27;;;17.00;99.90;;;;;;5065546;28;20224;-50
2022/05/12 00:45:29;;;;;;;4.80;2.37;;;17.00;99.90;;;;;;5066257;28;20193;-52
2022/05/12 00:47:57;;;;;;;3.60;2.67;;;16.90;99.90;;;;;;5064875;28;20328;-53
2022/05/12 00:50:27;;;;;;;2.43;2.13;;;17.00;99.90;;;;;;5064985;28;20236;-56
2022/05/12 00:52:53;;;;;;;2.37;1.93;;;16.90;99.90;;;;;;5065211;28;20217;-49
2022/05/12 00:55:27;;;;;;;2.23;2.10;;;16.90;99.90;;;;;;5065817;28;20283;-55
2022/05/12 00:57:55;;;;;;;2.77;2.10;;;16.80;99.90;;;;;;5065959;28;20209;-52
2022/05/12 01:00:23;;;;;;;2.20;2.00;;;16.90;99.90;;;;;;5064658;28;20317;-50
2022/05/12 01:02:53;;;;;;;5.83;2.70;;;16.90;99.90;;;;;;5066030;28;20197;-53
2022/05/12 01:05:21;;;;;;;2.77;2.30;;;16.90;99.90;;;;;;5065284;28;20191;-55
2022/05/12 01:07:47;;;;;;;5.03;2.77;;;16.80;99.90;;;;;;5065078;28;20235;-51
2022/05/12 01:10:13;;;;;;;2.23;2.13;;;16.80;99.90;;;;;;5064738;28;20199;-49
2022/05/12 01:12:45;;;;;;;2.57;2.37;;;16.80;99.90;;;;;;5065149;28;20293;-57
2022/05/12 01:15:12;;;;;;;4.23;2.60;;;16.70;99.90;;;;;;5065574;28;20181;-50
2022/05/12 01:17:38;;;;;;;4.03;2.67;;;16.80;99.90;;;;;;5064459;28;20188;-54
2022/05/12 01:20:04;;;;;;;2.40;1.60;;;16.80;99.90;;;;;;5065667;28;20268;-48
2022/05/12 01:23:12;;;;;;;4.13;1.97;;;16.80;99.90;;;;;;5064544;28;20198;-52
2022/05/12 01:25:37;;;;;;;2.70;2.10;;;16.80;99.90;;;;;;4987459;28;20233;-54
2022/05/12 01:28:04;;;;;;;2.37;2.20;;;16.80;99.90;;;;;;5004430;28;20191;-54
2022/05/12 01:30:30;;;;;;;3.33;2.50;;;16.80;99.90;;;;;;5003547;28;20188;-54
2022/05/12 01:32:55;;;;;;;2.53;2.33;;;16.80;99.90;;;;;;4988457;28;20191;-52
2022/05/12 01:35:24;;;;;;;2.33;2.23;;;16.80;99.90;;;;;;5003870;28;20297;-57
2022/05/12 01:37:50;;;;;;;2.90;2.07;;;16.80;99.90;;;;;;5004050;28;20190;-46
2022/05/12 01:40:22;;;;;;;2.57;2.37;;;16.80;99.90;;;;;;5003633;28;20246;-50
2022/05/12 01:42:48;;;;;;;2.50;2.30;;;16.90;99.90;;;;;;5004725;28;20190;-54
2022/05/12 01:45:16;;;;;;;3.07;2.40;;;16.80;99.90;;;;;;5004046;28;20190;-49
2022/05/12 01:47:43;;;;;;;2.47;1.90;;;16.80;99.90;;;;;;5003609;28;20189;-51
2022/05/12 01:50:10;;;;;;;2.17;2.07;;;16.90;99.90;;;;;;4988966;28;20193;-56
2022/05/12 01:52:37;;;;;;;3.70;2.27;;;16.80;99.90;;;;;;5007519;28;20208;-49
2022/05/12 01:55:04;;;;;;;2.50;2.27;;;16.70;99.90;;;;;;5008272;28;20239;-49
2022/05/12 01:57:29;;;;;;;2.70;2.50;;;16.60;99.90;;;;;;5007591;28;20217;-47
2022/05/12 01:59:56;;;;;;;4.37;2.27;;;16.60;99.90;;;;;;5007308;28;20252;-51
2022/05/12 02:02:23;;;;;;;2.43;2.20;;;16.60;99.90;;;;;;5067115;28;20187;-52
2022/05/12 02:04:49;;;;;;;2.37;2.20;;;16.50;99.90;;;;;;5068445;28;20179;-52
2022/05/12 02:07:16;;;;;;;2.70;2.50;;;16.60;99.90;;;;;;5069309;28;20228;-54
2022/05/12 02:09:42;;;;;;;2.30;2.13;;;16.60;99.90;;;;;;5069075;28;20196;-53
2022/05/12 02:12:08;;;;;;;2.70;2.50;;;16.50;99.90;;;;;;5069494;28;20191;-55
2022/05/12 02:14:35;;;;;;;2.70;2.50;;;16.50;99.90;;;;;;5069170;28;20201;-53
2022/05/12 02:17:02;;;;;;;5.97;2.40;;;16.50;99.90;;;;;;5068326;28;20289;-53
2022/05/12 02:19:27;;;;;;;3.37;2.10;;;16.40;99.90;;;;;;5068749;28;20205;-54
2022/05/12 02:21:54;;;;;;;2.10;2.00;;;16.40;99.90;;;;;;5068182;28;20194;-52
2022/05/12 02:24:21;;;;;;;2.27;2.17;;;16.30;99.90;;;;;;5069129;28;20273;-49
2022/05/12 02:26:47;;;;;;;2.30;2.20;;;16.40;99.90;;;;;;5068390;28;20196;-53
2022/05/12 02:29:12;;;;;;;2.10;1.90;;;16.20;99.90;;;;;;5069538;28;20265;-53
2022/05/12 02:31:38;;;;;;;2.00;1.90;;;16.20;99.90;;;;;;5068004;28;20182;-57
2022/05/12 02:34:04;;;;;;;2.50;2.10;;;16.30;99.90;;;;;;5068706;28;20179;-57
2022/05/12 02:36:30;;;;;;;4.00;2.47;;;16.20;99.90;;;;;;5068139;28;20189;-48
2022/05/12 02:38:56;;;;;;;2.27;1.90;;;16.20;99.90;;;;;;5068183;28;20188;-47
2022/05/12 02:41:22;;;;;;;2.67;2.47;;;16.30;99.90;;;;;;5068222;28;20218;-54
2022/05/12 02:43:47;;;;;;;2.40;2.20;;;16.30;99.90;;;;;;5068248;28;20190;-56
2022/05/12 02:46:14;;;;;;;2.80;2.30;;;16.30;99.90;;;;;;5068839;28;20191;-58
2022/05/12 02:48:43;;;;;;;2.20;2.10;;;16.40;99.90;;;;;;5067750;28;20557;-57
2022/05/12 02:51:09;;;;;;;2.67;2.40;;;16.30;99.90;;;;;;5067907;28;20178;-51
2022/05/12 02:53:35;;;;;;;2.43;2.23;;;16.30;99.90;;;;;;5068197;28;20218;-54
2022/05/12 02:56:02;;;;;;;2.47;2.27;;;16.40;99.90;;;;;;5068192;28;20195;-52
2022/05/12 02:58:28;;;;;;;4.07;2.40;;;16.40;99.90;;;;;;5067827;28;20185;-49
2022/05/12 03:00:55;;;;;;;2.50;2.40;;;16.40;99.90;;;;;;5067161;28;20221;-48
2022/05/12 03:03:21;;;;;;;4.70;2.30;;;16.30;99.90;;;;;;5067185;28;20196;-52
2022/05/12 03:05:47;;;;;;;4.67;2.80;;;16.30;99.90;;;;;;5066641;28;20661;-49
2022/05/12 03:08:13;;;;;;;4.17;2.53;;;16.10;99.90;;;;;;5067905;28;20221;-52
2022/05/12 03:10:39;;;;;;;2.57;2.40;;;16.10;99.90;;;;;;5083644;28;20182;-56
2022/05/12 03:13:05;;;;;;;4.00;2.40;;;16.10;99.90;;;;;;5067404;28;20320;-55
2022/05/12 03:15:31;;;;;;;2.63;2.30;;;16.00;99.90;;;;;;5066832;28;20206;-55
2022/05/12 03:17:58;;;;;;;7.03;2.50;;;16.00;99.90;;;;;;5066461;28;20192;-55
2022/05/12 03:20:26;;;;;;;3.83;2.47;;;16.00;99.90;;;;;;5067285;28;20213;-56
2022/05/12 03:22:53;;;;;;;2.93;2.23;;;16.00;99.90;;;;;;5066424;28;20286;-54
2022/05/12 03:25:19;;;;;;;2.20;2.10;;;16.00;99.90;;;;;;5067396;28;20186;-52
2022/05/12 03:27:46;;;;;;;2.57;2.00;;;16.00;99.90;;;;;;5066581;28;20182;-57
2022/05/12 03:30:18;;;;;;;2.73;2.23;;;16.00;99.90;;;;;;5066680;28;20186;-54
2022/05/12 03:32:44;;;;;;;2.33;2.23;;;16.00;99.90;;;;;;5066380;28;20305;-58
2022/05/12 03:35:11;;;;;;;2.17;1.97;;;15.90;99.90;;;;;;5066532;28;20182;-48
2022/05/12 03:37:38;;;;;;;2.77;2.10;;;15.90;99.90;;;;;;5066831;28;20185;-48
2022/05/12 03:40:05;;;;;;;2.30;2.20;;;15.90;99.90;;;;;;5065820;28;20245;-54
2022/05/12 03:42:31;;;;;;;2.40;2.20;;;15.80;99.90;;;;;;5067838;28;20186;-53
2022/05/12 03:44:59;;;;;;;3.20;2.20;;;15.70;99.90;;;;;;5066661;28;20198;-53
2022/05/12 03:47:29;;;;;;;2.23;2.03;;;15.70;99.90;;;;;;5066281;28;20245;-51
2022/05/12 03:49:59;;;;;;;2.53;2.20;;;15.70;99.90;;;;;;5066289;28;20221;-47
2022/05/12 03:52:25;;;;;;;3.73;2.57;;;15.80;99.90;;;;;;5066380;28;20182;-51
2022/05/12 03:54:51;;;;;;;3.13;2.00;;;15.80;99.90;;;;;;5066884;28;20191;-50
2022/05/12 03:57:18;;;;;;;2.40;2.30;;;15.90;99.90;;;;;;5065239;28;20242;-53
2022/05/12 03:59:44;;;;;;;2.37;2.03;;;16.00;99.90;;;;;;5067174;28;20223;-50
2022/05/12 04:02:13;;;;;;;2.33;2.03;;;16.00;99.90;;;;;;5065579;28;20195;-51
2022/05/12 04:04:41;;;;;;;18.07;7.60;;;16.10;99.90;;;;;;5066475;28;20203;-53
2022/05/12 04:07:08;;;;;;;10.07;4.40;;;16.10;99.90;;;;;;5066018;28;20226;-50
2022/05/12 04:09:33;;;;;;;2.83;2.50;;;16.10;99.90;;;;;;5065806;28;20285;-51
2022/05/12 04:11:59;;;;;;;2.90;2.70;;;16.20;99.90;;;;;;5066447;28;20328;-54
2022/05/12 04:14:25;;;;;;;2.23;2.13;;;16.40;99.90;;;;;;5064655;28;20202;-48
2022/05/12 04:16:51;;;;;;;3.00;2.20;;;16.40;99.90;;;;;;5066528;28;20191;-55
2022/05/12 04:19:17;;;;;;;2.60;2.40;;;16.80;99.90;;;;;;5065670;28;20181;-49
2022/05/12 04:21:43;;;;;;;3.03;2.77;;;16.90;99.90;;;;;;5066344;28;20275;-55
2022/05/12 04:24:09;;;;;;;2.30;2.13;;;17.00;99.90;;;;;;5065931;28;20251;-52
2022/05/12 04:26:39;;;;;;;3.87;2.10;;;17.00;99.90;;;;;;5065593;28;20320;-45
2022/05/12 04:29:05;;;;;;;2.33;2.13;;;17.20;99.90;;;;;;5065608;28;20279;-51
2022/05/12 04:31:31;;;;;;;2.60;2.43;;;17.20;99.90;;;;;;5065236;28;20293;-53
2022/05/12 04:36:42;;;;;;;4.30;2.13;;;17.50;99.90;;;;;;5082072;28;20198;-56
2022/05/12 04:39:08;;;;;;;2.40;2.10;;;17.40;99.90;;;;;;5066176;28;20195;-50
2022/05/12 04:41:35;;;;;;;2.47;2.27;;;17.40;99.90;;;;;;5063936;28;20221;-53
2022/05/12 04:44:01;;;;;;;2.07;1.97;;;17.50;99.90;;;;;;5065525;28;20279;-54
2022/05/12 04:46:28;;;;;;;4.20;2.20;;;17.50;99.90;;;;;;5065213;28;20188;-56
2022/05/12 04:48:54;;;;;;;2.43;2.23;;;17.50;99.90;;;;;;5063811;28;20189;-50
2022/05/12 04:51:21;;;;;;;4.17;2.67;;;17.50;99.90;;;;;;5065597;28;20189;-58
2022/05/12 04:53:47;;;;;;;2.27;1.70;;;17.50;99.90;;;;;;5064904;28;20201;-50
2022/05/12 04:56:13;;;;;;;3.27;2.70;;;17.40;99.90;;;;;;5064882;28;20173;-55
2022/05/12 04:58:39;;;;;;;6.00;2.87;;;17.50;99.90;;;;;;5064660;28;20181;-50
2022/05/12 05:01:05;;;;;;;8.80;2.70;;;17.30;99.90;;;;;;5064679;28;20247;-58
2022/05/12 05:03:32;;;;;;;2.60;2.40;;;17.20;99.90;;;;;;5063562;28;20193;-52
2022/05/12 05:05:58;;;;;;;2.57;2.37;;;17.30;99.90;;;;;;5064269;28;20185;-58
2022/05/12 05:08:25;;;;;;;2.37;2.17;;;17.30;99.90;;;;;;5064846;28;20204;-58
2022/05/12 05:10:53;;;;;;;2.30;2.10;;;17.50;99.90;;;;;;5064241;28;20256;-56
2022/05/12 05:13:21;;;;;;;2.60;2.10;;;17.70;99.90;;;;;;5065418;28;20189;-53
2022/05/12 05:15:47;;;;;;;2.00;1.90;;;17.80;99.90;;;;;;5064613;28;20246;-53
2022/05/12 05:18:15;;;;;;;2.83;2.00;;;17.90;99.90;;;;;;5061922;28;20242;-50
2022/05/12 05:20:42;;;;;;;2.03;1.93;;;18.00;99.90;;;;;;5063814;28;20278;-47
2022/05/12 05:23:08;;;;;;;2.10;2.00;;;18.20;99.90;;;;;;5063908;28;20213;-54
2022/05/12 05:25:34;;;;;;;2.20;2.10;;;18.40;99.90;;;;;;5065903;28;20178;-49
2022/05/12 05:28:00;;;;;;;2.20;2.10;;;18.60;99.90;;;;;;5066736;28;20181;-51
2022/05/12 05:30:27;;;;;;;2.20;2.10;;;18.70;99.90;;;;;;5066331;28;20174;-56
2022/05/12 05:32:54;;;;;;;2.57;2.37;;;18.80;99.90;;;;;;5067193;28;20189;-53
2022/05/12 05:35:21;;;;;;;3.97;1.80;;;18.90;99.90;;;;;;5068580;28;20268;-47
2022/05/12 05:37:48;;;;;;;1.80;1.70;;;18.90;99.90;;;;;;5066677;28;20246;-48
2022/05/12 05:40:17;;;;;;;2.00;1.90;;;18.90;99.90;;;;;;5058996;28;20245;-52
2022/05/12 05:42:44;;;;;;;4.20;2.07;;;18.90;99.90;;;;;;5068184;28;20190;-56
2022/05/12 05:45:15;;;;;;;2.40;2.20;;;19.00;99.90;;;;;;5065174;28;20911;-49
2022/05/12 05:47:45;;;;;;;2.00;1.90;;;19.10;99.90;;;;;;5068863;28;20182;-52
2022/05/12 05:50:13;;;;;;;2.17;2.00;;;19.10;99.90;;;;;;5082068;28;20182;-54
2022/05/12 05:55:23;;;;;;;1.80;1.60;;;19.60;99.90;;;;;;5084467;28;20178;-53
2022/05/12 05:57:49;;;;;;;1.50;1.50;;;19.60;99.90;;;;;;5064965;28;20186;-45
2022/05/12 06:00:17;;;;;;;4.73;2.63;;;19.70;99.90;;;;;;5066564;28;20619;-53
2022/05/12 06:02:43;;;;;;;5.43;2.20;;;19.90;99.90;;;;;;5066157;28;20182;-52
2022/05/12 06:05:09;;;;;;;3.13;2.87;;;20.00;99.90;;;;;;5068014;28;20184;-47
2022/05/12 06:07:39;;;;;;;1.90;1.77;;;20.00;99.90;;;;;;5067172;28;20218;-52
2022/05/12 06:10:06;;;;;;;2.53;2.40;;;19.90;99.90;;;;;;5065172;28;20290;-53
2022/05/12 06:12:33;;;;;;;2.77;2.57;;;19.90;99.90;;;;;;5067459;28;20186;-56
2022/05/12 06:14:59;;;;;;;2.67;2.47;;;20.00;99.90;;;;;;5067282;28;20220;-47
2022/05/12 06:17:26;;;;;;;1.93;1.57;;;20.00;99.90;;;;;;5066870;28;20198;-55
2022/05/12 06:19:52;;;;;;;2.87;1.90;;;19.90;99.90;;;;;;5064155;28;20203;-54
2022/05/12 06:22:20;;;;;;;1.83;1.73;;;19.90;99.90;;;;;;5066317;28;20284;-50
2022/05/12 06:24:47;;;;;;;2.80;1.70;;;20.10;99.90;;;;;;5067595;28;20181;-49
2022/05/12 06:27:20;;;;;;;2.17;2.00;;;20.00;99.90;;;;;;5067125;28;20187;-47
2022/05/12 06:29:47;;;;;;;4.17;2.00;;;20.10;99.90;;;;;;5067501;28;20190;-53
2022/05/12 06:32:14;;;;;;;1.67;1.57;;;20.20;99.90;;;;;;5068048;28;20192;-46
2022/05/12 06:34:45;;;;;;;2.27;1.80;;;20.30;99.70;;;;;;5068897;28;20218;-56
2022/05/12 06:37:11;;;;;;;1.43;1.33;;;20.40;99.60;;;;;;5067216;28;20182;-56
2022/05/12 06:39:38;;;;;;;1.50;1.40;;;20.50;99.70;;;;;;5069452;28;20205;-55
2022/05/12 06:42:06;;;;;;;1.37;1.23;;;20.60;98.70;;;;;;5068497;28;20183;-58
2022/05/12 06:44:32;;;;;;;1.43;1.40;;;20.70;98.50;;;;;;5068543;28;20201;-55
2022/05/12 06:46:58;;;;;;;1.57;1.40;;;20.70;98.00;;;;;;5067912;28;20181;-56
2022/05/12 06:49:23;;;;;;;1.40;0.90;;;20.80;97.50;;;;;;5067796;28;20204;-55
2022/05/12 06:51:49;;;;;;;1.23;0.63;;;20.90;96.50;;;;;;5068721;28;20184;-46
2022/05/12 06:54:15;;;;;;;0.97;0.60;;;21.00;96.00;;;;;;5067931;28;20191;-57
2022/05/12 06:56:41;;;;;;;0.60;0.60;;;21.20;95.50;;;;;;5069363;28;20225;-54
2022/05/12 06:59:08;;;;;;;0.83;0.83;;;21.30;95.60;;;;;;5067561;28;20181;-48
2022/05/12 07:01:34;;;;;;;0.60;0.60;;;21.40;95.50;;;;;;5068390;28;20221;-54
2022/05/12 07:04:00;;;;;;;0.63;0.63;;;21.30;94.70;;;;;;5067548;28;20215;-46
2022/05/12 07:06:27;;;;;;;1.33;0.60;;;21.20;94.90;;;;;;5067379;28;20237;-47
2022/05/12 07:08:53;;;;;;;2.90;0.80;;;21.40;94.70;;;;;;5067934;28;20220;-52
2022/05/12 07:11:19;;;;;;;2.10;0.77;;;21.40;94.90;;;;;;5067243;28;20216;-55
2022/05/12 07:13:45;;;;;;;0.60;0.60;;;21.70;94.80;;;;;;5069085;28;20194;-47
2022/05/12 07:16:12;;;;;;;0.80;0.80;;;21.80;94.40;;;;;;5067024;28;20197;-54
2022/05/12 07:18:38;;;;;;;0.70;0.70;;;22.00;94.10;;;;;;5068289;28;20182;-45
2022/05/12 07:26:40;;;;;;;0.80;0.50;;;22.20;93.50;;;;;;5084309;28;20194;-52
2022/05/12 07:29:27;;;;;;;4.38;0.60;;;22.00;93.50;;;;;;5067300;28;20181;-55
2022/05/12 07:31:53;;;;;;;0.40;0.40;;;22.00;93.50;;;;;;5067746;28;20312;-52
2022/05/12 07:34:20;;;;;;;0.60;0.60;;;21.90;93.60;;;;;;5067613;28;20190;-52
2022/05/12 07:36:52;;;;;;;1.38;0.65;;;21.90;93.70;;;;;;5066958;28;20272;-53
2022/05/12 07:39:26;;;;;;;0.95;0.50;;;22.10;93.80;;;;;;5067436;28;20186;-50
2022/05/12 07:41:53;;;;;;;0.55;0.55;;;22.30;93.60;;;;;;5066368;28;20204;-51
2022/05/12 07:44:19;;;;;;;2.13;0.50;;;22.30;93.20;;;;;;5068198;28;20197;-50
2022/05/12 07:46:46;;;;;;;0.50;0.50;;;22.10;93.50;;;;;;5067215;28;20194;-53
2022/05/12 07:49:13;;;;;;;0.60;0.60;;;21.90;93.20;;;;;;5067674;28;20198;-48
2022/05/12 07:51:39;;;;;;;0.75;0.70;;;21.80;93.20;;;;;;5067005;28;20186;-49
2022/05/12 07:54:05;;;;;;;0.73;0.73;;;22.00;93.20;;;;;;5066524;28;20238;-50
2022/05/12 07:56:31;;;;;;;1.40;0.80;;;22.00;93.20;;;;;;5067253;28;20190;-57
2022/05/12 07:58:59;;;;;;;0.50;0.50;;;22.10;93.30;;;;;;5066355;28;20317;-54
2022/05/12 08:01:26;;;;;;;0.52;0.45;;;22.10;93.20;;;;;;5067691;28;20218;-56
2022/05/12 08:03:53;;;;;;;0.50;0.50;;;22.20;93.40;;;;;;5067184;28;20185;-48
2022/05/12 08:06:20;;;;;;;0.57;0.57;;;22.30;93.10;;;;;;5066781;28;20229;-51
2022/05/12 08:08:48;;;;;;;0.55;0.55;;;22.20;93.30;;;;;;5066873;28;20182;-47
2022/05/12 08:11:15;;;;;;;0.70;0.70;;;22.30;93.60;;;;;;5066836;28;20239;-53
2022/05/12 08:13:46;;;;;;;0.82;0.70;;;22.30;93.20;;;;;;5067084;28;20190;-47
2022/05/12 08:16:13;;;;;;;0.60;0.60;;;22.40;93.00;;;;;;5066003;28;20190;-57
2022/05/12 08:18:39;;;;;;;1.85;0.70;;;22.40;93.20;;;;;;5067433;28;20190;-53
2022/05/12 08:21:05;;;;;;;0.50;0.50;;;22.40;93.30;;;;;;5065904;28;20226;-57
2022/05/12 08:23:31;;;;;;;0.60;0.60;;;22.40;93.00;;;;;;5066507;28;20272;-54
2022/05/12 08:25:57;;;;;;;0.93;0.70;;;22.50;93.10;;;;;;5066681;28;20181;-52
2022/05/12 08:28:24;;;;;;;0.85;0.60;;;23.00;92.80;;;;;;5066355;28;20205;-51
2022/05/12 08:30:51;;;;;;;0.50;0.50;;;23.30;92.40;;;;;;5066626;28;20276;-55
2022/05/12 08:33:17;;;;;;;0.80;0.80;;;23.60;92.30;;;;;;5066449;28;20182;-48
2022/05/12 08:35:43;;;;;;;0.50;0.50;;;23.90;91.90;;;;;;5066584;28;20186;-52
2022/05/12 08:38:10;;;;;;;0.82;0.60;;;24.00;91.50;;;;;;5065699;28;20197;-56
2022/05/12 08:40:52;;;;;;;1.15;0.60;;;23.70;91.10;;;;;;5066579;28;20210;-55
2022/05/12 08:43:50;;;;;;;0.52;0.52;;;23.90;90.90;;;;;;5066010;28;20190;-57
2022/05/12 08:46:34;;;;;;;0.50;0.50;;;24.30;90.40;;;;;;5055190;28;20212;-55
2022/05/12 08:49:13;;;;;;;0.73;0.60;;;24.10;90.80;;;;;;5056828;28;20212;-57
2022/05/12 08:51:38;;;;;;;0.40;0.40;;;24.00;90.50;;;;;;5063135;28;20190;-55
2022/05/12 08:54:14;;;;;;;0.60;0.60;;;23.90;90.60;;;;;;5064529;28;20192;-59
2022/05/12 08:56:40;;;;;;;0.40;0.40;;;24.20;90.60;;;;;;5064537;28;20207;-55
2022/05/12 08:59:08;;;;;;;0.65;0.65;;;24.50;89.80;;;;;;5062290;28;20178;-53
2022/05/12 09:02:03;;;;;;;0.60;0.60;;;24.50;89.40;;;;;;5063200;28;20675;-60
2022/05/12 09:04:38;;;;;;;0.60;0.60;;;24.60;89.30;;;;;;5060120;28;20182;-59
2022/05/12 09:07:07;;;;;;;0.50;0.50;;;24.20;89.70;;;;;;5064160;28;20209;-48
2022/05/12 09:10:02;;;;;;;1.30;0.63;;;23.70;90.60;;;;;;5065139;28;20178;-55
2022/05/12 09:12:52;;;;;;;0.52;0.50;;;23.80;90.70;;;;;;5064308;28;20200;-51
2022/05/12 09:15:23;;;;;;;2.22;0.60;;;24.00;90.70;;;;;;5066240;28;20197;-51
2022/05/12 09:17:59;;;;;;;0.68;0.68;;;24.00;90.70;;;;;;5064919;28;20265;-53
2022/05/12 09:20:32;;;;;;;0.60;0.52;;;24.40;90.20;;;;;;5065499;28;20221;-48
2022/05/12 09:23:00;;;;;;;1.08;0.55;;;24.40;90.30;;;;;;5065117;28;20621;-55
2022/05/12 09:25:31;;;;;;;0.50;0.50;;;24.80;89.60;;;;;;5063170;28;20182;-57
2022/05/12 09:28:00;;;;;;;0.68;0.68;;;24.50;90.40;;;;;;5065391;28;20189;-53
2022/05/12 09:30:35;;;;;;;1.00;1.00;;;24.80;89.60;;;;;;5064437;28;20189;-52
2022/05/12 09:33:01;;;;;;;0.98;0.98;;;25.00;88.40;;;;;;5064803;28;20182;-50
2022/05/12 09:35:29;;;;;;;0.60;0.60;;;25.10;88.90;;;;;;5064261;28;20185;-54
2022/05/12 09:37:56;;;;;;;1.05;0.57;;;25.20;88.60;;;;;;5063995;28;20291;-53
2022/05/12 09:40:34;;;;;;;3.05;0.70;;;24.20;89.30;;;;;;5064912;28;20256;-51
2022/05/12 09:43:21;;;;;;;0.50;0.50;;;24.20;90.20;;;;;;5064607;28;20182;-51
2022/05/12 09:46:04;;;;;;;0.60;0.60;;;24.30;90.20;;;;;;5047704;28;20256;-46
2022/05/12 09:48:32;;;;;;;0.60;0.60;;;24.40;90.30;;;;;;5062495;28;20182;-50
2022/05/12 09:51:21;;;;;;;0.60;0.60;;;24.20;90.30;;;;;;5081229;28;20620;-57
2022/05/12 09:53:51;;;;;;;0.50;0.50;;;24.90;90.00;;;;;;5045302;28;20190;-56
2022/05/12 09:56:31;;;;;;;0.93;0.93;;;25.20;89.30;;;;;;5058422;28;20186;-48
2022/05/12 09:59:06;;;;;;;1.27;0.80;;;25.50;88.30;;;;;;5064518;28;20237;-51
2022/05/12 10:01:34;;;;;;;0.73;0.73;;;24.50;89.10;;;;;;5064139;28;20280;-50
2022/05/12 10:10:10;;;;;;;0.63;0.63;;;24.50;90.10;;;;;;5080906;28;20190;-50
2022/05/12 10:12:51;;;;;;;1.98;1.10;;;25.30;88.20;;;;;;5064929;28;20181;-47
2022/05/12 10:15:23;;;;;;;0.77;0.75;;;26.00;86.40;;;;;;5069602;28;20209;-51
2022/05/12 10:17:55;;;;;;;1.08;0.75;;;27.10;85.00;;;;;;5067546;28;20582;-50
2022/05/12 10:20:24;;;;;;;1.45;0.77;;;27.70;82.20;;;;;;5067942;28;20209;-51
2022/05/12 10:23:07;;;;;;;0.70;0.70;;;28.00;83.00;;;;;;5063560;28;20275;-52
2022/05/12 10:26:20;;;;;;;0.65;0.65;;;27.50;82.90;;;;;;5067588;28;20272;-51
2022/05/12 10:28:51;;;;;;;0.75;0.75;;;28.60;80.30;;;;;;4987942;28;20278;-49
2022/05/12 10:31:23;;;;;;;0.55;0.55;;;28.70;78.90;;;;;;4987007;28;20193;-56
2022/05/12 10:34:01;;;;;;;1.10;0.65;;;28.10;79.70;;;;;;4994149;28;20283;-58
2022/05/12 10:36:49;;;;;;;1.10;1.00;;;27.90;80.70;;;;;;4989520;28;20210;-53
2022/05/12 10:39:26;;;;;;;3.10;1.30;;;28.70;79.30;;;;;;5006648;28;20207;-55
2022/05/12 10:42:01;;;;;;;1.45;0.90;;;27.80;77.80;;;;;;4990400;28;20238;-55
2022/05/12 10:44:59;;;;;;;0.75;0.75;;;27.60;79.80;;;;;;5006692;28;20203;-53
2022/05/12 10:47:56;;;;;;;1.73;0.93;;;29.20;78.10;;;;;;4989578;28;20180;-57
2022/05/12 10:50:37;;;;;;;1.25;0.95;;;28.20;78.40;;;;;;5007304;28;20211;-57
2022/05/12 10:53:33;;;;;;;1.13;0.70;;;27.70;79.80;;;;;;5006208;28;20192;-56
2022/05/12 10:56:08;;;;;;;0.88;0.88;;;28.30;79.30;;;;;;5012684;28;20192;-59
2022/05/12 10:58:51;;;;;;;0.73;0.70;;;29.10;76.10;;;;;;4999247;28;20286;-58
2022/05/12 11:01:35;;;;;;;0.93;0.57;;;28.30;77.30;;;;;;5022382;28;20226;-57
2022/05/12 11:04:14;;;;;;;2.05;1.00;;;27.90;77.70;;;;;;5067016;28;20181;-52
2022/05/12 11:06:45;;;;;;;1.08;0.98;;;27.50;77.90;;;;;;5068348;28;20221;-58
2022/05/12 11:09:20;;;;;;;1.30;1.30;;;26.50;81.20;;;;;;5067198;28;20186;-53
2022/05/12 11:11:50;;;;;;;1.38;1.27;;;26.50;80.50;;;;;;5068398;28;20182;-55
2022/05/12 11:14:31;;;;;;;0.80;0.80;;;27.20;79.20;;;;;;5068667;28;20186;-58
2022/05/12 11:17:08;;;;;;;2.63;0.85;;;28.00;78.80;;;;;;5067973;28;20197;-56
2022/05/12 11:19:37;;;;;;;0.82;0.82;;;28.40;77.20;;;;;;5068538;28;20323;-57
2022/05/12 11:22:36;;;;;;;0.82;0.82;;;28.40;77.30;;;;;;5067426;28;20272;-56
2022/05/12 11:25:05;;;;;;;1.00;1.00;;;29.30;76.10;;;;;;5067757;28;20201;-54
2022/05/12 11:27:40;;;;;;;0.90;0.90;;;30.40;74.60;;;;;;5067347;28;20182;-59
2022/05/12 11:30:21;;;;;;;0.73;0.73;;;31.30;72.30;;;;;;5067501;28;20236;-55
2022/05/12 11:32:57;;;;;;;1.75;0.90;;;31.20;70.80;;;;;;5068069;28;20269;-58
2022/05/12 11:35:28;;;;;;;1.08;1.08;;;30.90;70.90;;;;;;5068071;28;20192;-58
2022/05/12 11:38:03;;;;;;;0.80;0.80;;;29.20;72.40;;;;;;5067911;28;20189;-47
2022/05/12 11:40:43;;;;;;;1.48;1.00;;;28.60;74.30;;;;;;5067483;28;20721;-53
2022/05/12 11:46:33;;;;;;;2.25;0.90;;;29.80;72.10;;;;;;5083670;28;20217;-47
2022/05/12 11:49:17;;;;;;;0.68;0.68;;;30.50;71.20;;;;;;5067284;28;20182;-50
2022/05/12 11:51:51;;;;;;;1.40;0.90;;;29.70;71.60;;;;;;5067460;28;20177;-50
2022/05/12 11:54:30;;;;;;;0.73;0.73;;;29.60;71.20;;;;;;5068082;28;20189;-59
2022/05/12 11:56:57;;;;;;;1.20;1.10;;;29.10;71.40;;;;;;5066969;28;20410;-54
2022/05/12 11:59:26;;;;;;;1.25;1.05;;;28.60;71.20;;;;;;5067554;28;20197;-49
2022/05/12 12:01:59;;;;;;;1.00;1.00;;;29.30;72.00;;;;;;5067197;28;20351;-56
2022/05/12 12:04:41;;;;;;;2.75;1.00;;;30.80;69.60;;;;;;5066933;28;20189;-53
2022/05/12 12:07:35;;;;;;;1.08;0.68;;;30.20;69.60;;;;;;5067228;28;20313;-50
2022/05/12 12:10:31;;;;;;;1.00;1.00;;;30.00;69.50;;;;;;5066156;28;20249;-52
2022/05/12 12:13:26;;;;;;;1.85;1.13;;;31.20;68.50;;;;;;5067382;28;20208;-50
2022/05/12 12:16:13;;;;;;;0.93;0.93;;;31.70;66.30;;;;;;5067935;28;20189;-55
2022/05/12 12:18:38;;;;;;;0.80;0.80;;;30.90;68.60;;;;;;5067172;28;20186;-54
2022/05/12 12:21:36;;;;;;;2.50;0.90;;;30.10;69.10;;;;;;5066975;28;20656;-51
2022/05/12 12:24:11;;;;;;;0.85;0.82;;;29.80;70.00;;;;;;5067033;28;20626;-52
2022/05/12 12:26:40;;;;;;;0.55;0.55;;;31.10;67.00;;;;;;5066224;28;20178;-48
2022/05/12 12:29:08;;;;;;;1.00;0.93;;;30.50;67.00;;;;;;5067164;28;20174;-56
2022/05/12 12:31:40;;;;;;;1.17;1.17;;;28.50;68.80;;;;;;5066360;28;20177;-53
2022/05/12 12:34:43;;;;;;;1.40;1.00;;;29.00;68.70;;;;;;5067127;28;20259;-53
2022/05/12 12:37:09;;;;;;;0.65;0.65;;;30.40;68.10;;;;;;5066994;28;20193;-52
2022/05/12 12:39:43;;;;;;;0.70;0.70;;;29.60;69.30;;;;;;5066366;28;20201;-54
2022/05/12 12:42:14;;;;;;;2.72;1.02;;;29.60;69.40;;;;;;5067283;28;20189;-51
2022/05/12 12:44:48;;;;;;;1.65;0.90;;;29.80;67.30;;;;;;5066838;28;20281;-59
2022/05/12 12:47:26;;;;;;;5.30;1.00;;;30.30;66.10;;;;;;5066570;28;20669;-54
2022/05/12 12:50:16;;;;;;;0.95;0.95;;;31.50;65.00;;;;;;5065765;28;20193;-60
2022/05/12 12:52:44;;;;;;;0.80;0.80;;;30.70;64.30;;;;;;5066494;28;20239;-58
2022/05/12 12:58:26;;;;;;;0.90;0.90;;;32.80;62.80;;;;;;5083152;28;20219;-49
2022/05/12 13:01:00;;;;;;;1.33;1.23;;;31.70;62.50;;;;;;5066583;28;20232;-51
2022/05/12 13:03:32;;;;;;;1.75;0.93;;;31.70;63.60;;;;;;5066923;28;20185;-56
2022/05/12 13:06:15;;;;;;;1.17;1.17;;;31.70;63.30;;;;;;5066533;28;20197;-60
2022/05/12 13:08:41;;;;;;;1.85;1.00;;;31.30;64.30;;;;;;5066698;28;20194;-59
2022/05/12 13:11:08;;;;;;;0.68;0.68;;;31.10;65.00;;;;;;5066216;28;20184;-57
2022/05/12 13:13:54;;;;;;;0.98;0.98;;;32.00;63.40;;;;;;5066754;28;20186;-60
2022/05/12 13:16:22;;;;;;;1.00;1.00;;;31.40;63.70;;;;;;5066958;28;20193;-55
2022/05/12 13:18:51;;;;;;;1.35;1.00;;;33.40;62.00;;;;;;5065331;28;20190;-57
2022/05/12 13:21:32;;;;;;;2.83;1.02;;;34.50;60.10;;;;;;5066950;28;20656;-60
2022/05/12 13:24:01;;;;;;;1.10;1.10;;;33.20;60.00;;;;;;5066916;28;20185;-50
2022/05/12 13:26:27;;;;;;;1.38;1.00;;;31.40;62.50;;;;;;5067045;28;20189;-57
2022/05/12 13:28:53;;;;;;;1.48;0.98;;;31.30;63.00;;;;;;5066582;28;20196;-57